Larry Tilley — WY2160 — position and weather

sailwx.info

Track history (hours):
 
Tides and Currents Weather Stations Pressure Air Temp Water Temp Dewpoint Dewpoint Depression Visibility Wind Speed Wind Dir Waves Ship Positions

Larry Tilley

Owner: SOUTHERN TOWING COMPANY LLC., MEMPHIS, TN. More information available from US FCC via Universal Licensing System and Coast Guard Vessel Documentation Center.

Last reported at 2017-Feb-23 13:15 UTC. Time now 2017-May-30 07:07 UTC.
Position N 32°38' W 091°09'.
Warning: this ship's position is months out of date.

Length 40 m; draft 8.6 m.

Type: Towing. MMSI: 366919230.

Date/timePositionNaut miles runAvg speedWind from/ knotsBaromVisibWave heightAir tempDewpointWater temp
2017-Feb-23 13:15N 32°38' W 091°09'3 4.2
2017-Feb-23 12:33N 32°35' W 091°08'2 1.9
2017-Feb-23 11:33N 32°34' W 091°06'0 0.0
2017-Feb-23 10:33N 32°34' W 091°06'3 2.7
2017-Feb-23 09:26N 32°31' W 091°06'4 4.9
2017-Feb-23 08:33N 32°27' W 091°05'5 5.0
2017-Feb-23 07:33N 32°25' W 090°60'3 2.6
2017-Feb-23 06:33N 32°22' W 091°00'4 3.8
2017-Feb-23 05:33N 32°21' W 090°56'3 3.4
2017-Feb-23 04:33N 32°17' W 090°56'5 4.8
2017-Feb-23 03:33N 32°13' W 090°59'5 5.0
2017-Feb-23 02:33N 32°09' W 091°00'4 4.0
2017-Feb-23 01:33N 32°08' W 091°05'  
2017-Feb-19 13:18N 30°07' W 090°57'0 0.0
2017-Feb-19 12:33N 30°07' W 090°57'0 0.0
2017-Feb-19 07:19N 30°07' W 090°57'0 0.0
2017-Feb-19 06:33N 30°07' W 090°57'113 4.6
2017-Feb-18 06:05N 31°59' W 091°06'6 8.4
2017-Feb-18 05:23N 32°05' W 091°05'5 5.4
2017-Feb-18 04:33N 32°08' W 091°01'10 9.7
2017-Feb-18 03:33N 32°17' W 090°57'6 5.7
2017-Feb-18 02:33N 32°22' W 091°00'8 8.1
2017-Feb-18 01:33N 32°28' W 091°06'10 9.2
2017-Feb-18 00:29N 32°38' W 091°09'  
Track history (hours):
 
Tides and Currents Weather Stations Pressure Air Temp Water Temp Dewpoint Dewpoint Depression Visibility Wind Speed Wind Dir Waves Ship Positions

Larry Tilley

Owner: SOUTHERN TOWING COMPANY LLC., MEMPHIS, TN. More information available from US FCC via Universal Licensing System and Coast Guard Vessel Documentation Center.

Last reported at 2017-Feb-23 13:15 UTC. Time now 2017-May-30 07:07 UTC.
Position N 32°38' W 091°09'.
Warning: this ship's position is months out of date.

Length 40 m; draft 8.6 m.

Type: Towing. MMSI: 366919230.

Date/timePositionNaut miles runAvg speedWind from/ knotsBaromVisibWave heightAir tempDewpointWater temp
2017-Feb-23 13:15N 32°38' W 091°09'3 4.2
2017-Feb-23 12:33N 32°35' W 091°08'2 1.9
2017-Feb-23 11:33N 32°34' W 091°06'0 0.0
2017-Feb-23 10:33N 32°34' W 091°06'3 2.7
2017-Feb-23 09:26N 32°31' W 091°06'4 4.9
2017-Feb-23 08:33N 32°27' W 091°05'5 5.0
2017-Feb-23 07:33N 32°25' W 090°60'3 2.6
2017-Feb-23 06:33N 32°22' W 091°00'4 3.8
2017-Feb-23 05:33N 32°21' W 090°56'3 3.4
2017-Feb-23 04:33N 32°17' W 090°56'5 4.8
2017-Feb-23 03:33N 32°13' W 090°59'5 5.0
2017-Feb-23 02:33N 32°09' W 091°00'4 4.0
2017-Feb-23 01:33N 32°08' W 091°05'  
2017-Feb-19 13:18N 30°07' W 090°57'0 0.0
2017-Feb-19 12:33N 30°07' W 090°57'0 0.0
2017-Feb-19 07:19N 30°07' W 090°57'0 0.0
2017-Feb-19 06:33N 30°07' W 090°57'113 4.6
2017-Feb-18 06:05N 31°59' W 091°06'6 8.4
2017-Feb-18 05:23N 32°05' W 091°05'5 5.4
2017-Feb-18 04:33N 32°08' W 091°01'10 9.7
2017-Feb-18 03:33N 32°17' W 090°57'6 5.7
2017-Feb-18 02:33N 32°22' W 091°00'8 8.1
2017-Feb-18 01:33N 32°28' W 091°06'10 9.2
2017-Feb-18 00:29N 32°38' W 091°09'  

Dump ship's entire track history